sensor_id;sensor_type;location;lat;lon;timestamp;P1;durP1;ratioP1;P2;durP2;ratioP2
85769;SDS011;76210;41.986;21.462;2024-03-07T00:02:06;21.35;;;14.10;;
85769;SDS011;76210;41.986;21.462;2024-03-07T00:04:32;21.73;;;13.15;;
85769;SDS011;76210;41.986;21.462;2024-03-07T00:06:57;28.33;;;17.85;;
85769;SDS011;76210;41.986;21.462;2024-03-07T00:09:22;17.10;;;11.45;;
85769;SDS011;76210;41.986;21.462;2024-03-07T00:11:49;16.98;;;11.23;;
85769;SDS011;76210;41.986;21.462;2024-03-07T00:14:15;18.40;;;12.38;;
85769;SDS011;76210;41.986;21.462;2024-03-07T00:16:40;21.83;;;14.30;;
85769;SDS011;76210;41.986;21.462;2024-03-07T00:19:06;22.58;;;14.15;;
85769;SDS011;76210;41.986;21.462;2024-03-07T00:21:31;23.45;;;15.50;;
85769;SDS011;76210;41.986;21.462;2024-03-07T00:23:56;29.30;;;18.35;;
85769;SDS011;76210;41.986;21.462;2024-03-07T00:26:22;18.88;;;11.95;;
85769;SDS011;76210;41.986;21.462;2024-03-07T00:28:47;17.75;;;12.88;;
85769;SDS011;76210;41.986;21.462;2024-03-07T00:31:12;22.55;;;14.45;;
85769;SDS011;76210;41.986;21.462;2024-03-07T00:33:38;28.23;;;17.00;;
85769;SDS011;76210;41.986;21.462;2024-03-07T00:36:04;17.17;;;12.43;;
85769;SDS011;76210;41.986;21.462;2024-03-07T00:38:29;17.70;;;12.23;;
85769;SDS011;76210;41.986;21.462;2024-03-07T00:40:54;25.95;;;16.05;;
85769;SDS011;76210;41.986;21.462;2024-03-07T00:43:19;22.45;;;14.07;;
85769;SDS011;76210;41.986;21.462;2024-03-07T00:45:45;24.55;;;15.80;;
85769;SDS011;76210;41.986;21.462;2024-03-07T00:48:14;29.67;;;18.95;;
85769;SDS011;76210;41.986;21.462;2024-03-07T00:50:40;18.38;;;12.93;;
85769;SDS011;76210;41.986;21.462;2024-03-07T00:53:07;17.23;;;12.15;;
85769;SDS011;76210;41.986;21.462;2024-03-07T00:55:32;20.80;;;12.93;;
85769;SDS011;76210;41.986;21.462;2024-03-07T00:57:58;19.15;;;12.95;;
85769;SDS011;76210;41.986;21.462;2024-03-07T01:00:23;22.40;;;14.40;;
85769;SDS011;76210;41.986;21.462;2024-03-07T01:02:48;23.35;;;14.38;;
85769;SDS011;76210;41.986;21.462;2024-03-07T01:05:14;17.58;;;11.65;;
85769;SDS011;76210;41.986;21.462;2024-03-07T01:07:40;30.45;;;18.35;;
85769;SDS011;76210;41.986;21.462;2024-03-07T01:10:06;20.40;;;12.93;;
85769;SDS011;76210;41.986;21.462;2024-03-07T01:12:35;18.77;;;11.00;;
85769;SDS011;76210;41.986;21.462;2024-03-07T01:15:01;20.70;;;11.60;;
85769;SDS011;76210;41.986;21.462;2024-03-07T01:17:29;15.93;;;10.35;;
85769;SDS011;76210;41.986;21.462;2024-03-07T01:19:54;15.27;;;11.10;;
85769;SDS011;76210;41.986;21.462;2024-03-07T01:22:19;32.38;;;20.10;;
85769;SDS011;76210;41.986;21.462;2024-03-07T01:24:45;20.02;;;12.82;;
85769;SDS011;76210;41.986;21.462;2024-03-07T01:27:10;22.17;;;13.73;;
85769;SDS011;76210;41.986;21.462;2024-03-07T01:29:35;18.73;;;12.13;;
85769;SDS011;76210;41.986;21.462;2024-03-07T01:32:00;47.83;;;29.25;;
85769;SDS011;76210;41.986;21.462;2024-03-07T01:34:27;21.45;;;13.32;;
85769;SDS011;76210;41.986;21.462;2024-03-07T01:36:52;22.20;;;15.23;;
85769;SDS011;76210;41.986;21.462;2024-03-07T01:39:17;31.65;;;19.48;;
85769;SDS011;76210;41.986;21.462;2024-03-07T01:41:43;31.20;;;19.85;;
85769;SDS011;76210;41.986;21.462;2024-03-07T01:44:08;20.35;;;13.15;;
85769;SDS011;76210;41.986;21.462;2024-03-07T01:46:33;19.38;;;13.75;;
85769;SDS011;76210;41.986;21.462;2024-03-07T01:48:59;24.50;;;14.68;;
85769;SDS011;76210;41.986;21.462;2024-03-07T01:51:24;8.45;;;5.72;;
85769;SDS011;76210;41.986;21.462;2024-03-07T01:53:50;9.35;;;5.20;;
85769;SDS011;76210;41.986;21.462;2024-03-07T01:56:16;3.53;;;2.03;;
85769;SDS011;76210;41.986;21.462;2024-03-07T01:58:42;2.72;;;2.03;;
85769;SDS011;76210;41.986;21.462;2024-03-07T02:01:07;4.57;;;2.20;;
85769;SDS011;76210;41.986;21.462;2024-03-07T02:03:33;15.88;;;9.00;;
85769;SDS011;76210;41.986;21.462;2024-03-07T02:05:59;4.60;;;2.13;;
85769;SDS011;76210;41.986;21.462;2024-03-07T02:08:24;4.28;;;2.20;;
85769;SDS011;76210;41.986;21.462;2024-03-07T02:10:49;14.93;;;7.63;;
85769;SDS011;76210;41.986;21.462;2024-03-07T02:13:15;12.82;;;7.38;;
85769;SDS011;76210;41.986;21.462;2024-03-07T02:15:40;3.92;;;2.53;;
85769;SDS011;76210;41.986;21.462;2024-03-07T02:18:07;14.82;;;8.15;;
85769;SDS011;76210;41.986;21.462;2024-03-07T02:20:34;4.72;;;3.35;;
85769;SDS011;76210;41.986;21.462;2024-03-07T02:22:59;15.07;;;7.60;;
85769;SDS011;76210;41.986;21.462;2024-03-07T02:25:24;4.60;;;3.03;;
85769;SDS011;76210;41.986;21.462;2024-03-07T02:27:50;5.60;;;3.97;;
85769;SDS011;76210;41.986;21.462;2024-03-07T02:30:15;6.32;;;4.13;;
85769;SDS011;76210;41.986;21.462;2024-03-07T02:32:41;21.58;;;12.70;;
85769;SDS011;76210;41.986;21.462;2024-03-07T02:35:07;13.23;;;6.90;;
85769;SDS011;76210;41.986;21.462;2024-03-07T02:37:33;20.55;;;11.55;;
85769;SDS011;76210;41.986;21.462;2024-03-07T02:39:58;23.75;;;14.50;;
85769;SDS011;76210;41.986;21.462;2024-03-07T02:42:24;23.25;;;14.73;;
85769;SDS011;76210;41.986;21.462;2024-03-07T02:44:49;22.63;;;14.05;;
85769;SDS011;76210;41.986;21.462;2024-03-07T02:47:14;26.63;;;16.52;;
85769;SDS011;76210;41.986;21.462;2024-03-07T02:49:40;22.17;;;13.18;;
85769;SDS011;76210;41.986;21.462;2024-03-07T02:52:05;28.13;;;16.55;;
85769;SDS011;76210;41.986;21.462;2024-03-07T02:54:32;23.63;;;14.50;;
85769;SDS011;76210;41.986;21.462;2024-03-07T02:56:58;28.25;;;16.52;;
85769;SDS011;76210;41.986;21.462;2024-03-07T02:59:23;21.15;;;13.60;;
85769;SDS011;76210;41.986;21.462;2024-03-07T03:01:48;24.15;;;14.70;;
85769;SDS011;76210;41.986;21.462;2024-03-07T03:04:14;36.95;;;22.17;;
85769;SDS011;76210;41.986;21.462;2024-03-07T03:06:39;22.63;;;13.75;;
85769;SDS011;76210;41.986;21.462;2024-03-07T03:09:04;19.13;;;12.32;;
85769;SDS011;76210;41.986;21.462;2024-03-07T03:11:30;21.10;;;13.48;;
85769;SDS011;76210;41.986;21.462;2024-03-07T03:13:55;21.60;;;13.13;;
85769;SDS011;76210;41.986;21.462;2024-03-07T03:16:20;22.05;;;13.98;;
85769;SDS011;76210;41.986;21.462;2024-03-07T03:18:46;23.85;;;14.40;;
85769;SDS011;76210;41.986;21.462;2024-03-07T03:21:13;23.50;;;14.38;;
85769;SDS011;76210;41.986;21.462;2024-03-07T03:23:40;27.30;;;16.40;;
85769;SDS011;76210;41.986;21.462;2024-03-07T03:26:05;27.30;;;17.15;;
85769;SDS011;76210;41.986;21.462;2024-03-07T03:28:31;24.70;;;15.80;;
85769;SDS011;76210;41.986;21.462;2024-03-07T03:30:57;28.45;;;18.52;;
85769;SDS011;76210;41.986;21.462;2024-03-07T03:33:22;19.45;;;12.70;;
85769;SDS011;76210;41.986;21.462;2024-03-07T03:35:48;22.63;;;13.65;;
85769;SDS011;76210;41.986;21.462;2024-03-07T03:38:13;27.70;;;15.75;;
85769;SDS011;76210;41.986;21.462;2024-03-07T03:40:38;20.50;;;13.52;;
85769;SDS011;76210;41.986;21.462;2024-03-07T03:43:04;25.02;;;15.52;;
85769;SDS011;76210;41.986;21.462;2024-03-07T03:45:29;24.15;;;16.00;;
85769;SDS011;76210;41.986;21.462;2024-03-07T03:47:57;24.80;;;15.82;;
85769;SDS011;76210;41.986;21.462;2024-03-07T03:50:22;18.17;;;12.32;;
85769;SDS011;76210;41.986;21.462;2024-03-07T03:52:50;17.88;;;12.45;;
85769;SDS011;76210;41.986;21.462;2024-03-07T03:55:16;18.52;;;12.80;;
85769;SDS011;76210;41.986;21.462;2024-03-07T03:57:42;30.67;;;18.10;;
85769;SDS011;76210;41.986;21.462;2024-03-07T04:00:09;27.50;;;15.52;;
85769;SDS011;76210;41.986;21.462;2024-03-07T04:02:45;24.85;;;15.63;;
85769;SDS011;76210;41.986;21.462;2024-03-07T04:05:13;31.65;;;18.38;;
85769;SDS011;76210;41.986;21.462;2024-03-07T04:07:39;29.00;;;17.25;;
85769;SDS011;76210;41.986;21.462;2024-03-07T04:10:05;28.13;;;17.42;;
85769;SDS011;76210;41.986;21.462;2024-03-07T04:12:37;24.42;;;15.27;;
85769;SDS011;76210;41.986;21.462;2024-03-07T04:17:29;22.05;;;13.38;;
85769;SDS011;76210;41.986;21.462;2024-03-07T04:19:54;19.23;;;12.30;;
85769;SDS011;76210;41.986;21.462;2024-03-07T04:22:19;24.08;;;14.65;;
85769;SDS011;76210;41.986;21.462;2024-03-07T04:24:45;24.85;;;15.82;;
85769;SDS011;76210;41.986;21.462;2024-03-07T04:27:10;23.73;;;13.82;;
85769;SDS011;76210;41.986;21.462;2024-03-07T04:29:36;23.80;;;15.02;;
85769;SDS011;76210;41.986;21.462;2024-03-07T04:32:01;25.47;;;14.87;;
85769;SDS011;76210;41.986;21.462;2024-03-07T04:34:27;20.23;;;13.60;;
85769;SDS011;76210;41.986;21.462;2024-03-07T04:37:01;25.27;;;14.50;;
85769;SDS011;76210;41.986;21.462;2024-03-07T04:39:27;21.17;;;12.02;;
85769;SDS011;76210;41.986;21.462;2024-03-07T04:41:58;27.30;;;14.20;;
85769;SDS011;76210;41.986;21.462;2024-03-07T04:44:25;22.90;;;14.48;;
85769;SDS011;76210;41.986;21.462;2024-03-07T04:46:50;24.70;;;15.52;;
85769;SDS011;76210;41.986;21.462;2024-03-07T04:49:20;23.90;;;14.13;;
85769;SDS011;76210;41.986;21.462;2024-03-07T04:51:46;22.25;;;13.65;;
85769;SDS011;76210;41.986;21.462;2024-03-07T04:54:11;23.23;;;13.23;;
85769;SDS011;76210;41.986;21.462;2024-03-07T04:56:36;23.58;;;15.02;;
85769;SDS011;76210;41.986;21.462;2024-03-07T04:59:02;20.60;;;13.65;;
85769;SDS011;76210;41.986;21.462;2024-03-07T05:01:27;21.45;;;13.60;;
85769;SDS011;76210;41.986;21.462;2024-03-07T05:03:52;28.10;;;16.58;;
85769;SDS011;76210;41.986;21.462;2024-03-07T05:06:18;25.55;;;14.57;;
85769;SDS011;76210;41.986;21.462;2024-03-07T05:08:43;19.23;;;12.43;;
85769;SDS011;76210;41.986;21.462;2024-03-07T05:11:08;21.08;;;12.40;;
85769;SDS011;76210;41.986;21.462;2024-03-07T05:13:34;19.13;;;12.33;;
85769;SDS011;76210;41.986;21.462;2024-03-07T05:15:59;22.30;;;13.65;;
85769;SDS011;76210;41.986;21.462;2024-03-07T05:18:25;25.08;;;14.60;;
85769;SDS011;76210;41.986;21.462;2024-03-07T05:20:50;22.90;;;13.67;;
85769;SDS011;76210;41.986;21.462;2024-03-07T05:23:15;21.92;;;13.52;;
85769;SDS011;76210;41.986;21.462;2024-03-07T05:25:41;20.92;;;13.63;;
85769;SDS011;76210;41.986;21.462;2024-03-07T05:28:07;23.08;;;14.57;;
85769;SDS011;76210;41.986;21.462;2024-03-07T05:30:32;22.67;;;14.77;;
85769;SDS011;76210;41.986;21.462;2024-03-07T05:32:58;24.95;;;15.48;;
85769;SDS011;76210;41.986;21.462;2024-03-07T05:35:23;25.92;;;14.13;;
85769;SDS011;76210;41.986;21.462;2024-03-07T05:37:49;21.02;;;12.98;;
85769;SDS011;76210;41.986;21.462;2024-03-07T05:40:15;18.48;;;12.13;;
85769;SDS011;76210;41.986;21.462;2024-03-07T05:42:41;20.15;;;12.45;;
85769;SDS011;76210;41.986;21.462;2024-03-07T05:45:06;17.90;;;12.82;;
85769;SDS011;76210;41.986;21.462;2024-03-07T05:47:33;19.90;;;12.93;;
85769;SDS011;76210;41.986;21.462;2024-03-07T05:49:58;20.42;;;12.90;;
85769;SDS011;76210;41.986;21.462;2024-03-07T05:52:23;20.92;;;13.45;;
85769;SDS011;76210;41.986;21.462;2024-03-07T05:54:48;23.85;;;14.75;;
85769;SDS011;76210;41.986;21.462;2024-03-07T05:57:14;19.97;;;13.13;;
85769;SDS011;76210;41.986;21.462;2024-03-07T05:59:39;21.00;;;14.87;;
85769;SDS011;76210;41.986;21.462;2024-03-07T06:02:04;21.77;;;13.98;;
85769;SDS011;76210;41.986;21.462;2024-03-07T06:04:30;22.85;;;14.52;;
85769;SDS011;76210;41.986;21.462;2024-03-07T06:06:57;22.23;;;14.73;;
85769;SDS011;76210;41.986;21.462;2024-03-07T06:09:22;25.00;;;16.50;;
85769;SDS011;76210;41.986;21.462;2024-03-07T06:11:47;21.30;;;14.35;;
85769;SDS011;76210;41.986;21.462;2024-03-07T06:14:13;17.85;;;12.60;;
85769;SDS011;76210;41.986;21.462;2024-03-07T06:16:39;18.98;;;12.45;;
85769;SDS011;76210;41.986;21.462;2024-03-07T06:19:05;17.67;;;11.50;;
85769;SDS011;76210;41.986;21.462;2024-03-07T06:21:34;18.00;;;12.15;;
85769;SDS011;76210;41.986;21.462;2024-03-07T06:23:59;23.42;;;14.32;;
85769;SDS011;76210;41.986;21.462;2024-03-07T06:26:32;19.58;;;13.25;;
85769;SDS011;76210;41.986;21.462;2024-03-07T06:29:15;27.05;;;17.30;;
85769;SDS011;76210;41.986;21.462;2024-03-07T06:31:43;18.52;;;13.43;;
85769;SDS011;76210;41.986;21.462;2024-03-07T06:34:11;20.63;;;15.52;;
85769;SDS011;76210;41.986;21.462;2024-03-07T06:36:38;22.50;;;14.93;;
85769;SDS011;76210;41.986;21.462;2024-03-07T06:39:03;19.58;;;15.10;;
85769;SDS011;76210;41.986;21.462;2024-03-07T06:41:34;23.33;;;17.67;;
85769;SDS011;76210;41.986;21.462;2024-03-07T06:43:59;21.83;;;17.20;;
85769;SDS011;76210;41.986;21.462;2024-03-07T06:46:25;22.73;;;17.50;;
85769;SDS011;76210;41.986;21.462;2024-03-07T06:48:50;22.58;;;17.77;;
85769;SDS011;76210;41.986;21.462;2024-03-07T06:51:16;22.75;;;16.38;;
85769;SDS011;76210;41.986;21.462;2024-03-07T06:53:43;22.35;;;17.90;;
85769;SDS011;76210;41.986;21.462;2024-03-07T06:56:08;21.83;;;17.58;;
85769;SDS011;76210;41.986;21.462;2024-03-07T06:58:33;22.83;;;18.73;;
85769;SDS011;76210;41.986;21.462;2024-03-07T07:00:58;22.33;;;19.03;;
85769;SDS011;76210;41.986;21.462;2024-03-07T07:03:25;20.60;;;17.05;;
85769;SDS011;76210;41.986;21.462;2024-03-07T07:05:53;17.20;;;15.25;;
85769;SDS011;76210;41.986;21.462;2024-03-07T07:08:19;19.08;;;15.95;;
85769;SDS011;76210;41.986;21.462;2024-03-07T07:10:44;17.85;;;14.90;;
85769;SDS011;76210;41.986;21.462;2024-03-07T07:13:10;16.20;;;13.67;;
85769;SDS011;76210;41.986;21.462;2024-03-07T07:15:35;15.32;;;11.63;;
85769;SDS011;76210;41.986;21.462;2024-03-07T07:18:02;14.10;;;11.45;;
85769;SDS011;76210;41.986;21.462;2024-03-07T07:20:28;13.07;;;11.07;;
85769;SDS011;76210;41.986;21.462;2024-03-07T07:22:53;13.25;;;11.35;;
85769;SDS011;76210;41.986;21.462;2024-03-07T07:25:18;13.80;;;11.43;;
85769;SDS011;76210;41.986;21.462;2024-03-07T07:27:49;13.50;;;11.45;;
85769;SDS011;76210;41.986;21.462;2024-03-07T07:30:15;12.23;;;10.05;;
85769;SDS011;76210;41.986;21.462;2024-03-07T07:32:40;14.82;;;11.70;;
85769;SDS011;76210;41.986;21.462;2024-03-07T07:35:06;11.75;;;10.55;;
85769;SDS011;76210;41.986;21.462;2024-03-07T07:37:38;12.52;;;10.55;;
85769;SDS011;76210;41.986;21.462;2024-03-07T07:40:04;14.15;;;11.57;;
85769;SDS011;76210;41.986;21.462;2024-03-07T07:42:33;11.10;;;8.65;;
85769;SDS011;76210;41.986;21.462;2024-03-07T07:44:58;10.63;;;8.88;;
85769;SDS011;76210;41.986;21.462;2024-03-07T07:47:23;9.40;;;8.40;;
85769;SDS011;76210;41.986;21.462;2024-03-07T07:49:49;13.67;;;10.00;;
85769;SDS011;76210;41.986;21.462;2024-03-07T07:52:14;11.60;;;10.27;;
85769;SDS011;76210;41.986;21.462;2024-03-07T07:54:42;11.63;;;9.23;;
85769;SDS011;76210;41.986;21.462;2024-03-07T07:57:07;11.45;;;9.65;;
85769;SDS011;76210;41.986;21.462;2024-03-07T07:59:33;12.00;;;9.70;;
85769;SDS011;76210;41.986;21.462;2024-03-07T08:01:58;14.43;;;10.13;;
85769;SDS011;76210;41.986;21.462;2024-03-07T08:04:23;17.57;;;11.73;;
85769;SDS011;76210;41.986;21.462;2024-03-07T08:06:48;15.33;;;12.53;;
85769;SDS011;76210;41.986;21.462;2024-03-07T08:09:14;17.70;;;13.83;;
85769;SDS011;76210;41.986;21.462;2024-03-07T08:11:41;16.55;;;13.82;;
85769;SDS011;76210;41.986;21.462;2024-03-07T08:14:07;18.85;;;14.95;;
85769;SDS011;76210;41.986;21.462;2024-03-07T08:16:32;16.33;;;13.93;;
85769;SDS011;76210;41.986;21.462;2024-03-07T08:18:57;17.08;;;14.77;;
85769;SDS011;76210;41.986;21.462;2024-03-07T08:21:22;19.83;;;15.10;;
85769;SDS011;76210;41.986;21.462;2024-03-07T08:23:48;18.30;;;16.05;;
85769;SDS011;76210;41.986;21.462;2024-03-07T08:26:13;18.25;;;13.52;;
85769;SDS011;76210;41.986;21.462;2024-03-07T08:28:40;16.30;;;14.15;;
85769;SDS011;76210;41.986;21.462;2024-03-07T08:31:06;16.10;;;14.48;;
85769;SDS011;76210;41.986;21.462;2024-03-07T08:33:31;17.47;;;15.13;;
85769;SDS011;76210;41.986;21.462;2024-03-07T08:35:58;18.52;;;15.75;;
85769;SDS011;76210;41.986;21.462;2024-03-07T08:38:24;14.77;;;13.18;;
85769;SDS011;76210;41.986;21.462;2024-03-07T08:40:49;15.65;;;12.25;;
85769;SDS011;76210;41.986;21.462;2024-03-07T08:43:14;14.13;;;12.70;;
85769;SDS011;76210;41.986;21.462;2024-03-07T08:45:40;12.90;;;10.75;;
85769;SDS011;76210;41.986;21.462;2024-03-07T08:48:06;12.07;;;10.75;;
85769;SDS011;76210;41.986;21.462;2024-03-07T08:50:35;11.13;;;10.00;;
85769;SDS011;76210;41.986;21.462;2024-03-07T08:53:02;13.95;;;11.40;;
85769;SDS011;76210;41.986;21.462;2024-03-07T08:55:29;12.73;;;9.60;;
85769;SDS011;76210;41.986;21.462;2024-03-07T08:57:55;11.05;;;9.27;;
85769;SDS011;76210;41.986;21.462;2024-03-07T09:00:21;11.32;;;8.55;;
85769;SDS011;76210;41.986;21.462;2024-03-07T09:02:49;10.02;;;8.05;;
85769;SDS011;76210;41.986;21.462;2024-03-07T09:05:18;10.95;;;8.25;;
85769;SDS011;76210;41.986;21.462;2024-03-07T09:07:44;12.23;;;8.45;;
85769;SDS011;76210;41.986;21.462;2024-03-07T09:10:11;10.90;;;8.00;;
85769;SDS011;76210;41.986;21.462;2024-03-07T09:12:36;8.18;;;6.68;;
85769;SDS011;76210;41.986;21.462;2024-03-07T09:15:02;6.93;;;6.23;;
85769;SDS011;76210;41.986;21.462;2024-03-07T09:17:28;7.30;;;5.57;;
85769;SDS011;76210;41.986;21.462;2024-03-07T09:19:53;8.25;;;5.85;;
85769;SDS011;76210;41.986;21.462;2024-03-07T09:22:18;5.83;;;4.83;;
85769;SDS011;76210;41.986;21.462;2024-03-07T09:24:44;5.97;;;4.57;;
85769;SDS011;76210;41.986;21.462;2024-03-07T09:27:09;6.27;;;4.50;;
85769;SDS011;76210;41.986;21.462;2024-03-07T09:29:34;5.80;;;4.57;;
85769;SDS011;76210;41.986;21.462;2024-03-07T09:31:59;6.67;;;4.77;;
85769;SDS011;76210;41.986;21.462;2024-03-07T09:34:25;6.43;;;4.83;;
85769;SDS011;76210;41.986;21.462;2024-03-07T09:36:50;5.82;;;4.53;;
85769;SDS011;76210;41.986;21.462;2024-03-07T09:39:16;5.72;;;3.88;;
85769;SDS011;76210;41.986;21.462;2024-03-07T09:41:42;6.05;;;3.92;;
85769;SDS011;76210;41.986;21.462;2024-03-07T09:44:14;6.18;;;4.00;;
85769;SDS011;76210;41.986;21.462;2024-03-07T09:49:08;5.13;;;3.55;;
85769;SDS011;76210;41.986;21.462;2024-03-07T09:51:35;5.47;;;3.80;;
85769;SDS011;76210;41.986;21.462;2024-03-07T09:54:01;5.72;;;3.95;;
85769;SDS011;76210;41.986;21.462;2024-03-07T09:56:27;5.82;;;4.05;;
85769;SDS011;76210;41.986;21.462;2024-03-07T09:58:54;5.90;;;3.42;;
85769;SDS011;76210;41.986;21.462;2024-03-07T10:01:21;6.15;;;3.88;;
85769;SDS011;76210;41.986;21.462;2024-03-07T10:03:47;9.63;;;4.30;;
85769;SDS011;76210;41.986;21.462;2024-03-07T10:06:12;6.15;;;3.75;;
85769;SDS011;76210;41.986;21.462;2024-03-07T10:08:38;5.80;;;3.97;;
85769;SDS011;76210;41.986;21.462;2024-03-07T10:11:05;5.70;;;3.90;;
85769;SDS011;76210;41.986;21.462;2024-03-07T10:13:31;9.57;;;4.18;;
85769;SDS011;76210;41.986;21.462;2024-03-07T10:15:56;12.30;;;5.45;;
85769;SDS011;76210;41.986;21.462;2024-03-07T10:18:25;4.28;;;3.22;;
85769;SDS011;76210;41.986;21.462;2024-03-07T10:20:53;3.45;;;2.60;;
85769;SDS011;76210;41.986;21.462;2024-03-07T10:23:19;5.63;;;3.50;;
85769;SDS011;76210;41.986;21.462;2024-03-07T10:25:46;4.60;;;3.05;;
85769;SDS011;76210;41.986;21.462;2024-03-07T10:28:11;5.82;;;3.22;;
85769;SDS011;76210;41.986;21.462;2024-03-07T10:30:43;5.50;;;3.03;;
85769;SDS011;76210;41.986;21.462;2024-03-07T10:33:12;7.70;;;3.33;;
85769;SDS011;76210;41.986;21.462;2024-03-07T10:35:38;5.55;;;3.80;;
85769;SDS011;76210;41.986;21.462;2024-03-07T10:38:03;5.38;;;3.30;;
85769;SDS011;76210;41.986;21.462;2024-03-07T10:40:32;9.15;;;3.80;;
85769;SDS011;76210;41.986;21.462;2024-03-07T10:42:58;5.80;;;3.10;;
85769;SDS011;76210;41.986;21.462;2024-03-07T10:45:28;4.30;;;2.70;;
85769;SDS011;76210;41.986;21.462;2024-03-07T10:47:54;5.80;;;2.90;;
85769;SDS011;76210;41.986;21.462;2024-03-07T10:50:39;5.22;;;3.00;;
85769;SDS011;76210;41.986;21.462;2024-03-07T11:00:49;5.93;;;3.05;;
85769;SDS011;76210;41.986;21.462;2024-03-07T11:03:14;4.55;;;3.47;;
85769;SDS011;76210;41.986;21.462;2024-03-07T11:05:40;5.03;;;2.97;;
85769;SDS011;76210;41.986;21.462;2024-03-07T11:08:08;5.05;;;3.17;;
85769;SDS011;76210;41.986;21.462;2024-03-07T11:10:38;4.13;;;2.70;;
85769;SDS011;76210;41.986;21.462;2024-03-07T11:13:04;3.88;;;2.70;;
85769;SDS011;76210;41.986;21.462;2024-03-07T11:15:29;5.43;;;2.65;;
85769;SDS011;76210;41.986;21.462;2024-03-07T11:17:56;6.00;;;2.95;;
85769;SDS011;76210;41.986;21.462;2024-03-07T11:20:25;5.45;;;3.13;;
85769;SDS011;76210;41.986;21.462;2024-03-07T11:22:50;3.97;;;3.13;;
85769;SDS011;76210;41.986;21.462;2024-03-07T11:25:19;4.03;;;2.65;;
85769;SDS011;76210;41.986;21.462;2024-03-07T11:27:55;7.28;;;2.55;;
85769;SDS011;76210;41.986;21.462;2024-03-07T11:32:47;5.65;;;3.25;;
85769;SDS011;76210;41.986;21.462;2024-03-07T11:35:15;5.30;;;2.80;;
85769;SDS011;76210;41.986;21.462;2024-03-07T11:37:44;4.95;;;2.33;;
85769;SDS011;76210;41.986;21.462;2024-03-07T11:40:58;4.53;;;3.03;;
85769;SDS011;76210;41.986;21.462;2024-03-07T11:42:57;4.25;;;2.70;;
85769;SDS011;76210;41.986;21.462;2024-03-07T11:45:25;5.47;;;2.75;;
85769;SDS011;76210;41.986;21.462;2024-03-07T11:47:54;6.85;;;3.13;;
85769;SDS011;76210;41.986;21.462;2024-03-07T11:50:25;4.95;;;2.92;;
85769;SDS011;76210;41.986;21.462;2024-03-07T11:52:51;7.53;;;3.92;;
85769;SDS011;76210;41.986;21.462;2024-03-07T11:55:17;14.20;;;7.10;;
85769;SDS011;76210;41.986;21.462;2024-03-07T11:57:44;10.77;;;7.05;;
85769;SDS011;76210;41.986;21.462;2024-03-07T12:00:11;6.22;;;3.25;;
85769;SDS011;76210;41.986;21.462;2024-03-07T12:02:37;10.88;;;7.18;;
85769;SDS011;76210;41.986;21.462;2024-03-07T12:05:03;8.20;;;4.88;;
85769;SDS011;76210;41.986;21.462;2024-03-07T12:07:30;39.58;;;22.70;;
85769;SDS011;76210;41.986;21.462;2024-03-07T12:09:55;22.33;;;13.75;;
85769;SDS011;76210;41.986;21.462;2024-03-07T12:12:21;37.38;;;21.90;;
85769;SDS011;76210;41.986;21.462;2024-03-07T12:14:47;6.43;;;3.42;;
85769;SDS011;76210;41.986;21.462;2024-03-07T12:17:12;7.70;;;4.18;;
85769;SDS011;76210;41.986;21.462;2024-03-07T12:19:39;10.10;;;4.15;;
85769;SDS011;76210;41.986;21.462;2024-03-07T12:22:07;5.13;;;2.85;;
85769;SDS011;76210;41.986;21.462;2024-03-07T12:24:37;5.38;;;3.33;;
85769;SDS011;76210;41.986;21.462;2024-03-07T12:27:09;11.55;;;5.63;;
85769;SDS011;76210;41.986;21.462;2024-03-07T12:29:40;6.95;;;3.78;;
85769;SDS011;76210;41.986;21.462;2024-03-07T12:32:07;5.22;;;3.17;;
85769;SDS011;76210;41.986;21.462;2024-03-07T12:34:34;6.85;;;2.55;;
85769;SDS011;76210;41.986;21.462;2024-03-07T12:37:02;6.70;;;3.10;;
85769;SDS011;76210;41.986;21.462;2024-03-07T12:39:28;4.60;;;2.38;;
85769;SDS011;76210;41.986;21.462;2024-03-07T12:42:00;4.75;;;2.30;;
85769;SDS011;76210;41.986;21.462;2024-03-07T12:44:25;5.72;;;2.50;;
85769;SDS011;76210;41.986;21.462;2024-03-07T12:46:51;7.20;;;2.83;;
85769;SDS011;76210;41.986;21.462;2024-03-07T12:49:21;6.38;;;2.30;;
85769;SDS011;76210;41.986;21.462;2024-03-07T12:51:46;6.00;;;2.65;;
85769;SDS011;76210;41.986;21.462;2024-03-07T12:54:11;6.13;;;2.63;;
85769;SDS011;76210;41.986;21.462;2024-03-07T12:56:37;7.30;;;2.70;;
85769;SDS011;76210;41.986;21.462;2024-03-07T12:59:05;5.22;;;2.63;;
85769;SDS011;76210;41.986;21.462;2024-03-07T13:01:34;6.40;;;3.50;;
85769;SDS011;76210;41.986;21.462;2024-03-07T13:04:02;4.90;;;2.60;;
85769;SDS011;76210;41.986;21.462;2024-03-07T13:06:29;4.15;;;2.55;;
85769;SDS011;76210;41.986;21.462;2024-03-07T13:08:58;4.70;;;2.45;;
85769;SDS011;76210;41.986;21.462;2024-03-07T13:11:23;5.10;;;2.38;;
85769;SDS011;76210;41.986;21.462;2024-03-07T13:13:48;8.90;;;3.15;;
85769;SDS011;76210;41.986;21.462;2024-03-07T13:16:14;8.27;;;3.25;;
85769;SDS011;76210;41.986;21.462;2024-03-07T13:18:40;6.70;;;2.83;;
85769;SDS011;76210;41.986;21.462;2024-03-07T13:21:05;6.38;;;4.05;;
85769;SDS011;76210;41.986;21.462;2024-03-07T13:23:31;5.55;;;2.55;;
85769;SDS011;76210;41.986;21.462;2024-03-07T13:25:57;5.25;;;2.38;;
85769;SDS011;76210;41.986;21.462;2024-03-07T13:28:23;9.23;;;5.68;;
85769;SDS011;76210;41.986;21.462;2024-03-07T13:30:50;5.97;;;3.10;;
85769;SDS011;76210;41.986;21.462;2024-03-07T13:33:19;6.45;;;2.95;;
85769;SDS011;76210;41.986;21.462;2024-03-07T13:35:44;9.13;;;3.30;;
85769;SDS011;76210;41.986;21.462;2024-03-07T13:38:10;15.77;;;9.98;;
85769;SDS011;76210;41.986;21.462;2024-03-07T13:40:35;6.20;;;3.10;;
85769;SDS011;76210;41.986;21.462;2024-03-07T13:43:04;5.20;;;2.80;;
85769;SDS011;76210;41.986;21.462;2024-03-07T13:45:30;5.72;;;2.78;;
85769;SDS011;76210;41.986;21.462;2024-03-07T13:47:57;5.38;;;2.28;;
85769;SDS011;76210;41.986;21.462;2024-03-07T13:50:23;4.30;;;2.15;;
85769;SDS011;76210;41.986;21.462;2024-03-07T13:52:50;8.25;;;5.00;;
85769;SDS011;76210;41.986;21.462;2024-03-07T13:55:37;8.45;;;4.35;;
85769;SDS011;76210;41.986;21.462;2024-03-07T13:58:06;5.57;;;2.58;;
85769;SDS011;76210;41.986;21.462;2024-03-07T14:00:55;6.53;;;2.72;;
85769;SDS011;76210;41.986;21.462;2024-03-07T14:03:26;6.65;;;2.97;;
85769;SDS011;76210;41.986;21.462;2024-03-07T14:06:08;7.82;;;3.90;;
85769;SDS011;76210;41.986;21.462;2024-03-07T14:21:23;6.97;;;3.50;;
85769;SDS011;76210;41.986;21.462;2024-03-07T14:26:49;4.88;;;2.50;;
85769;SDS011;76210;41.986;21.462;2024-03-07T14:31:52;4.15;;;2.38;;
85769;SDS011;76210;41.986;21.462;2024-03-07T14:36:44;5.97;;;2.50;;
85769;SDS011;76210;41.986;21.462;2024-03-07T14:39:10;5.60;;;2.90;;
85769;SDS011;76210;41.986;21.462;2024-03-07T14:44:10;4.55;;;1.90;;
85769;SDS011;76210;41.986;21.462;2024-03-07T14:46:35;3.53;;;1.67;;
85769;SDS011;76210;41.986;21.462;2024-03-07T14:49:01;2.05;;;1.35;;
85769;SDS011;76210;41.986;21.462;2024-03-07T14:51:26;2.83;;;1.20;;
85769;SDS011;76210;41.986;21.462;2024-03-07T14:53:52;2.33;;;1.42;;